Latest Coastal Weather Observations for Hindmarsh Island

IDS60701

Issued at 10:11 am CDT Monday 21 January 2019 (issued every 10 minutes, with the page automatically refreshed every 10 minutes)

About coastal observations | Map of coastal stations | Coastal observations for SA | Marine services | Other Formats
Station Details ID: 023894 Name: HINDMARSH ISLAND AWS Lat: -35.52 Lon: 138.82 Height: 11.0 m
Data from the previous 72 hours. | See also: Recent months at Hindmarsh Island
Date/Time
CDT
Wind Sea
Height
m
Swell Vis
km
Cloud Weather Temp
°C
Press
hPa
Rain since
9am
mm
Dir  Spd
kts
Gust
kts
Height
m
Period
s
Dir
21/10:00am SE 2 6 - - - - - - - 20.2 1015.9 0.0
21/09:30am S 1 4 - - - - - - - 19.4 1016.2 0.0
21/09:00am E 1 5 - - - - - - - 18.9 1016.4 0.0
21/08:30am CALM 0 0 - - - - - - - 18.8 1016.5 0.0
21/08:00am CALM 0 3 - - - - - - - 18.5 1016.5 0.0
21/07:30am CALM 0 0 - - - - - - - 18.3 1016.5 0.0
21/07:00am SE 3 5 - - - - - - - 17.8 1016.3 0.0
21/06:30am SE 4 5 - - - - - - - 17.5 1016.0 0.0
21/06:00am SSE 4 6 - - - - - - - 17.6 1015.9 0.0
21/05:30am SSE 6 7 - - - - - - - 17.9 1016.0 0.0
21/05:00am S 5 7 - - - - - - - 17.9 1016.0 0.0
21/04:30am SSE 5 7 - - - - - - - 17.8 1016.2 0.0
21/04:00am SSE 7 9 - - - - - - - 17.9 1016.3 0.0
21/03:30am SSE 7 9 - - - - - - - 18.2 1016.6 0.0
21/03:00am SSE 9 11 - - - - - - - 18.0 1017.0 0.0
21/02:30am SSE 9 11 - - - - - - - 18.0 1017.4 0.0
21/02:00am S 9 11 - - - - - - - 18.0 1017.8 0.0
21/01:30am S 9 11 - - - - - - - 18.2 1018.4 0.0
21/01:00am S 9 11 - - - - - - - 18.2 1018.8 0.0
21/12:30am SSE 11 14 - - - - - - - 18.3 1019.1 0.0
21/12:00am SSE 13 16 - - - - - - - 18.5 1019.2 0.0
 
Date/Time
CDT
Wind Sea
Height
m
Swell Vis
km
Cloud Weather Temp
°C
Press
hPa
Rain since
9am
mm
Dir  Spd
kts
Gust
kts
Height
m
Period
s
Dir
20/11:30pm S 14 17 - - - - - - - 18.9 1019.5 0.0
20/11:00pm S 14 19 - - - - - - - 18.9 1019.8 0.0
20/10:30pm S 15 17 - - - - - - - 19.0 1019.9 0.0
20/10:00pm SSW 12 15 - - - - - - - 19.3 1019.7 0.0
20/09:30pm SSW 12 15 - - - - - - - 19.5 1019.5 0.0
20/09:00pm SSW 10 13 - - - - - - - 19.6 1019.2 0.0
20/08:30pm SSW 11 13 - - - - - - - 19.7 1019.1 0.0
20/08:00pm SSW 13 15 - - - - - - - 20.1 1019.1 0.0
20/07:30pm S 15 17 - - - - - - - 20.3 1018.7 0.0
20/07:00pm SSW 15 18 - - - - - - - 21.3 1018.5 0.0
20/06:30pm SSW 14 17 - - - - - - - 21.9 1018.7 0.0
20/06:00pm SSW 14 18 - - - - - - - 22.1 1018.8 0.0
20/05:30pm SSW 14 17 - - - - - - - 22.2 1018.7 0.0
20/05:00pm SSW 14 17 - - - - - - - 22.5 1018.9 0.0
20/04:30pm SSW 14 16 - - - - - - - 22.7 1019.1 0.0
20/04:00pm SSW 15 17 - - - - - - - 22.7 1019.2 0.0
20/03:30pm SSW 16 19 - - - - - - - 22.4 1019.4 0.0
20/03:00pm S 17 19 - - - - - - - 22.7 1019.4 0.0
20/02:30pm S 17 19 - - - - - - - 22.2 1019.7 0.0
20/02:00pm S 16 19 - - - - - - - 22.2 1019.9 0.0
20/01:30pm S 16 19 - - - - - - - 21.7 1020.2 0.0
20/01:00pm SSE 16 18 - - - - - - - 22.0 1020.4 0.0
20/12:30pm S 12 15 - - - - - - - 22.4 1020.8 0.0
20/12:00pm S 13 15 - - - - - - - 22.5 1021.1 0.0
20/11:30am SSE 8 11 - - - - - - - 21.6 1021.5 0.0
20/11:00am SSE 9 12 - - - - - - - 21.9 1021.7 0.0
20/10:30am E 7 9 - - - - - - - 22.8 1021.9 0.0
20/10:00am ESE 7 11 - - - - - - - 22.2 1022.3 0.0
20/09:30am E 9 13 - - - - - - - 20.6 1022.5 0.0
20/09:00am E 8 12 - - - - - - - 20.2 1022.5 0.2
20/08:30am E 9 11 - - - - - - - 19.0 1022.4 0.2
20/08:00am ENE 8 10 - - - - - - - 18.2 1022.2 0.2
20/07:30am ENE 5 7 - - - - - - - 16.8 1022.2 0.2
20/07:00am ENE 7 8 - - - - - - - 15.4 1021.8 0.2
20/06:30am NE 7 8 - - - - - - - 14.9 1021.7 0.2
20/06:00am NE 6 6 - - - - - - - 14.9 1021.7 0.2
20/05:30am ENE 7 8 - - - - - - - 14.7 1021.3 0.2
20/05:00am ENE 7 8 - - - - - - - 15.1 1021.4 0.2
20/04:30am E 7 8 - - - - - - - 15.2 1021.5 0.2
20/04:00am E 6 7 - - - - - - - 15.9 1021.5 0.2
20/03:30am ESE 9 11 - - - - - - - 17.0 1021.6 0.2
20/03:00am SE 12 15 - - - - - - - 17.7 1021.6 0.2
20/02:30am SE 12 15 - - - - - - - 17.8 1022.1 0.2
20/02:00am SE 13 16 - - - - - - - 17.8 1022.2 0.2
20/01:30am SSE 12 15 - - - - - - - 18.0 1022.7 0.2
20/01:00am SSE 13 15 - - - - - - - 18.0 1022.8 0.2
20/12:30am SSE 13 16 - - - - - - - 18.1 1023.3 0.2
20/12:00am SSE 15 18 - - - - - - - 18.1 1023.4 0.2
 
Date/Time
CDT
Wind Sea
Height
m
Swell Vis
km
Cloud Weather Temp
°C
Press
hPa
Rain since
9am
mm
Dir  Spd
kts
Gust
kts
Height
m
Period
s
Dir
19/11:30pm S 16 18 - - - - - - - 18.2 1023.2 0.2
19/11:00pm SSE 16 19 - - - - - - - 18.2 1023.1 0.2
19/10:30pm SSE 17 19 - - - - - - - 18.4 1022.9 0.2
19/10:00pm SSE 16 20 - - - - - - - 18.1 1022.9 0.2
19/09:30pm S 17 19 - - - - - - - 18.2 1023.0 0.2
19/09:00pm S 17 20 - - - - - - - 18.2 1022.8 0.2
19/08:30pm S 16 19 - - - - - - - 18.5 1022.6 0.2
19/08:00pm S 17 19 - - - - - - - 18.6 1022.2 0.2
19/07:30pm S 17 20 - - - - - - - 18.9 1022.1 0.2
19/07:00pm S 17 19 - - - - - - - 19.3 1021.7 0.2
19/06:30pm S 16 19 - - - - - - - 20.1 1021.8 0.2
19/06:00pm SSE 16 19 - - - - - - - 19.8 1021.6 0.2
19/05:30pm S 17 20 - - - - - - - 20.7 1021.3 0.2
19/05:00pm S 18 22 - - - - - - - 20.7 1021.4 0.2
19/04:30pm S 17 20 - - - - - - - 21.2 1021.7 0.2
19/04:00pm S 17 20 - - - - - - - 20.2 1021.5 0.2
19/03:30pm S 16 18 - - - - - - - 21.0 1022.2 0.2
19/03:00pm S 16 21 - - - - - - - 21.0 1022.3 0.2
19/02:30pm S 15 18 - - - - - - - 21.5 1022.5 0.2
19/02:00pm S 16 20 - - - - - - - 22.3 1022.5 0.2
19/01:30pm S 16 19 - - - - - - - 21.9 1022.7 0.2
19/01:00pm S 16 19 - - - - - - - 21.5 1023.0 0.2
19/12:30pm S 14 17 - - - - - - - 21.8 1023.3 0.2
19/12:00pm S 13 19 - - - - - - - 21.8 1023.4 0.2
19/11:30am S 13 15 - - - - - - - 21.8 1023.3 0.2
19/11:00am S 11 15 - - - - - - - 21.7 1023.3 0.2
19/10:30am SSE 12 15 - - - - - - - 21.4 1023.2 0.0
19/10:00am SSE 11 17 - - - - - - - 21.0 1023.1 0.0
19/09:30am SSE 11 14 - - - - - - - 20.5 1022.9 0.0
19/09:00am SSE 11 15 - - - - - - - 20.1 1022.6 0.0
19/08:30am SSE 8 11 - - - - - - - 20.0 1022.6 0.0
19/08:00am SSE 5 8 - - - - - - - 19.1 1022.4 0.0
19/07:30am E 3 5 - - - - - - - 18.1 1022.2 0.0
19/07:00am E 5 5 - - - - - - - 17.5 1021.7 0.0
19/06:30am E 5 7 - - - - - - - 17.5 1021.4 0.0
19/06:00am SSE 12 14 - - - - - - - 17.7 1020.9 0.0
19/05:30am SE 10 12 - - - - - - - 17.7 1020.8 0.0
19/05:00am SE 9 11 - - - - - - - 18.1 1020.7 0.0
19/04:30am SSE 10 12 - - - - - - - 18.1 1020.5 0.0
19/04:00am SE 12 15 - - - - - - - 18.2 1020.2 0.0
19/03:30am SSE 12 15 - - - - - - - 18.4 1020.2 0.0
19/03:00am SSE 10 13 - - - - - - - 18.3 1019.9 0.0
19/02:30am SSE 13 16 - - - - - - - 18.2 1019.5 0.0
19/02:00am SSE 13 16 - - - - - - - 18.4 1019.8 0.0
19/01:30am S 13 15 - - - - - - - 18.5 1019.9 0.0
19/01:00am SSE 14 17 - - - - - - - 18.6 1019.5 0.0
19/12:30am S 15 18 - - - - - - - 18.6 1019.1 0.0
19/12:00am SSE 17 21 - - - - - - - 18.8 1019.2 0.0
 
Date/Time
CDT
Wind Sea
Height
m
Swell Vis
km
Cloud Weather Temp
°C
Press
hPa
Rain since
9am
mm
Dir  Spd
kts
Gust
kts
Height
m
Period
s
Dir
18/11:30pm SSE 15 17 - - - - - - - 19.0 1019.0 0.0
18/11:00pm S 17 22 - - - - - - - 19.3 1018.7 0.0
18/10:30pm S 21 25 - - - - - - - 19.4 1018.5 0.0
18/10:00pm S 19 22 - - - - - - - 19.7 1018.2 0.0
18/09:30pm S 17 19 - - - - - - - 19.7 1017.9 0.0
18/09:00pm S 17 21 - - - - - - - 19.7 1017.5 0.0
18/08:30pm S 17 20 - - - - - - - 19.7 1017.2 0.0
18/08:00pm S 16 19 - - - - - - - 19.9 1017.0 0.0
18/07:30pm S 16 19 - - - - - - - 19.9 1016.5 0.0
18/07:00pm S 13 16 - - - - - - - 20.6 1016.1 0.0
18/06:30pm S 14 19 - - - - - - - 21.0 1015.8 0.0
18/06:00pm SSW 18 23 - - - - - - - 21.3 1014.7 0.0
18/05:30pm SSW 20 23 - - - - - - - 21.3 1014.4 0.0
18/05:00pm SSW 22 25 - - - - - - - 20.8 1014.4 0.0
18/04:30pm SSW 19 22 - - - - - - - 21.0 1014.1 0.0
18/04:00pm SSW 16 19 - - - - - - - 21.1 1014.2 0.0
18/03:30pm SSW 13 16 - - - - - - - 21.1 1014.7 0.0
18/03:00pm SSW 17 21 - - - - - - - 20.8 1014.2 0.0
18/02:30pm SSW 13 16 - - - - - - - 20.3 1014.3 0.0
18/02:00pm SSW 11 16 - - - - - - - 21.2 1013.9 0.0
18/01:30pm SSW 12 15 - - - - - - - 22.0 1013.2 0.0
18/01:00pm SSW 12 15 - - - - - - - 21.7 1013.2 0.0
18/12:30pm SSW 13 15 - - - - - - - 20.7 1013.4 0.0
18/12:00pm S 16 19 - - - - - - - 20.0 1013.3 0.0
18/11:30am SSW 16 19 - - - - - - - 20.0 1013.2 0.0
18/11:00am SSW 16 19 - - - - - - - 20.5 1012.9 0.0
18/10:30am SSW 15 18 - - - - - - - 20.6 1012.7 0.0

Other Formats:

Comma delimited format used in spreadsheet applications
http://www.bom.gov.au/fwo/IDS60701/IDS60701.94677.axf

JavaScript Object Notation format (JSON) in row-major order
http://www.bom.gov.au/fwo/IDS60701/IDS60701.94677.json